createdAt,value
2019-01-15T00:07:05.050Z,2.40
2019-01-15T00:09:52.674Z,2.80
2019-01-15T00:12:40.267Z,2.67
2019-01-15T00:15:27.896Z,2.70
2019-01-15T00:18:15.506Z,2.37
2019-01-15T00:53:45.871Z,3.37
2019-01-15T00:56:33.513Z,3.43
2019-01-15T00:59:21.227Z,2.97
2019-01-15T01:02:08.839Z,2.97
2019-01-15T01:04:56.452Z,2.63
2019-01-15T01:07:44.224Z,2.80
2019-01-15T01:10:33.357Z,3.23
2019-01-15T01:13:20.981Z,3.10
2019-01-15T01:16:08.601Z,3.13
2019-01-15T01:18:56.205Z,2.80
2019-01-15T01:21:43.817Z,2.57
2019-01-15T01:39:08.990Z,3.20
2019-01-15T01:41:37.413Z,3.30
2019-01-15T01:44:05.947Z,3.37
2019-01-15T01:46:34.456Z,3.30
2019-01-15T01:49:03.233Z,2.50
2019-01-15T01:51:31.717Z,3.17
2019-01-15T01:54:00.145Z,3.27
2019-01-15T01:56:28.663Z,2.77
2019-01-15T01:58:57.933Z,3.43
2019-01-15T02:01:26.441Z,3.30
2019-01-15T02:03:54.935Z,3.00
2019-01-15T02:06:24.890Z,3.37
2019-01-15T02:08:53.527Z,3.40
2019-01-15T02:11:22.018Z,3.23
2019-01-15T02:13:50.519Z,3.13
2019-01-15T02:16:19.006Z,3.13
2019-01-15T02:18:47.573Z,3.73
2019-01-15T02:21:16.094Z,3.57
2019-01-15T02:23:44.586Z,4.10
2019-01-15T02:26:13.145Z,3.33
2019-01-15T02:28:42.094Z,3.80
2019-01-15T02:31:10.566Z,4.03
2019-01-15T02:33:39.142Z,3.77
2019-01-15T02:36:07.727Z,4.70
2019-01-15T02:38:36.230Z,3.80
2019-01-15T02:41:04.730Z,3.93
2019-01-15T02:43:33.322Z,4.37
2019-01-15T02:46:01.862Z,3.70
2019-01-15T02:48:30.374Z,4.10
2019-01-15T02:50:59.970Z,4.10
2019-01-15T02:53:28.471Z,3.90
2019-01-15T02:55:56.974Z,4.10
2019-01-15T02:58:25.400Z,3.70
2019-01-15T03:00:53.815Z,3.67
2019-01-15T03:03:22.419Z,3.90
2019-01-15T03:05:51.052Z,3.63
2019-01-15T03:08:19.474Z,4.17
2019-01-15T03:10:48.162Z,3.70
2019-01-15T03:13:16.679Z,4.00
2019-01-15T03:15:45.172Z,3.90
2019-01-15T03:18:13.663Z,3.43
2019-01-15T03:20:42.081Z,3.30
2019-01-15T03:23:10.536Z,3.37
2019-01-15T03:25:39.022Z,3.20
2019-01-15T03:28:07.502Z,3.67
2019-01-15T03:30:35.932Z,3.83
2019-01-15T03:33:04.456Z,3.73
2019-01-15T03:35:32.959Z,4.00
2019-01-15T03:38:01.503Z,4.27
2019-01-15T03:40:30.002Z,3.80
2019-01-15T03:43:03.443Z,3.60
2019-01-15T03:45:29.067Z,3.07
2019-01-15T03:47:58.279Z,3.67
2019-01-15T03:50:26.775Z,3.70
2019-01-15T03:52:55.312Z,3.53
2019-01-15T03:55:23.804Z,3.17
2019-01-15T03:57:52.371Z,3.43
2019-01-15T04:00:22.064Z,3.17
2019-01-15T04:02:50.679Z,3.13
2019-01-15T04:05:19.309Z,3.10
2019-01-15T04:07:49.499Z,3.30
2019-01-15T04:10:17.999Z,2.97
2019-01-15T04:12:46.509Z,2.80
2019-01-15T04:15:15.164Z,3.33
2019-01-15T04:17:43.712Z,3.50
2019-01-15T04:20:12.833Z,3.47
2019-01-15T04:22:41.927Z,3.10
2019-01-15T04:25:11.263Z,3.13
2019-01-15T04:27:39.819Z,3.40
2019-01-15T04:30:09.985Z,3.27
2019-01-15T04:32:38.423Z,3.40
2019-01-15T04:35:07.560Z,3.47
2019-01-15T04:37:36.044Z,3.60
2019-01-15T04:40:04.920Z,3.50
2019-01-15T04:42:33.422Z,3.80
2019-01-15T04:45:01.913Z,3.97
2019-01-15T04:47:30.376Z,3.40
2019-01-15T04:49:59.440Z,3.72
2019-01-15T04:52:28.309Z,4.00
2019-01-15T04:54:56.803Z,4.30
2019-01-15T04:57:25.643Z,4.10
2019-01-15T04:59:54.228Z,4.40
2019-01-15T05:02:22.744Z,4.53
2019-01-15T05:04:51.221Z,4.33
2019-01-15T05:07:19.708Z,4.57
2019-01-15T05:09:48.205Z,4.57
2019-01-15T05:12:16.837Z,4.77
2019-01-15T05:14:45.337Z,4.97
2019-01-15T05:17:13.825Z,4.87
2019-01-15T05:19:42.425Z,4.53
2019-01-15T05:22:10.954Z,5.20
2019-01-15T05:24:39.473Z,5.70
2019-01-15T05:27:08.044Z,5.70
2019-01-15T05:29:36.454Z,5.90
2019-01-15T05:32:04.949Z,6.43
2019-01-15T05:34:33.448Z,6.20
2019-01-15T05:37:01.945Z,7.37
2019-01-15T05:39:30.506Z,7.20
2019-01-15T05:41:59.612Z,7.60
2019-01-15T05:44:28.125Z,8.50
2019-01-15T05:46:56.754Z,7.50
2019-01-15T05:49:25.305Z,7.90
2019-01-15T05:51:53.773Z,7.97
2019-01-15T05:54:22.274Z,9.27
2019-01-15T05:56:50.774Z,9.10
2019-01-15T05:59:19.281Z,10.03
2019-01-15T06:01:47.733Z,10.33
2019-01-15T06:04:16.321Z,10.27
2019-01-15T06:06:44.823Z,11.40
2019-01-15T06:09:13.486Z,12.27
2019-01-15T06:11:42.139Z,12.93
2019-01-15T06:14:10.795Z,12.73
2019-01-15T06:16:42.085Z,13.63
2019-01-15T06:19:10.566Z,13.67
2019-01-15T06:21:39.205Z,13.93
2019-01-15T06:24:07.705Z,13.53
2019-01-15T06:26:36.186Z,14.30
2019-01-15T06:29:06.489Z,13.10
2019-01-15T06:31:35.013Z,15.20
2019-01-15T06:34:03.524Z,15.50
2019-01-15T06:36:32.010Z,16.87
2019-01-15T06:39:00.418Z,16.20
2019-01-15T06:41:28.950Z,17.03
2019-01-15T06:43:57.378Z,17.00
2019-01-15T06:46:25.919Z,16.67
2019-01-15T06:48:54.442Z,17.63
2019-01-15T06:51:23.021Z,18.20
2019-01-15T06:53:51.546Z,18.47
2019-01-15T06:56:20.094Z,18.57
2019-01-15T06:58:48.614Z,17.43
2019-01-15T07:01:17.018Z,18.57
2019-01-15T07:03:45.526Z,20.07
2019-01-15T07:06:14.054Z,19.93
2019-01-15T07:08:42.546Z,20.43
2019-01-15T07:11:11.098Z,20.43
2019-01-15T07:13:39.614Z,20.20
2019-01-15T07:16:09.014Z,22.57
2019-01-15T07:18:37.534Z,22.10
2019-01-15T07:21:06.098Z,22.60
2019-01-15T07:23:34.517Z,22.80
2019-01-15T07:26:12.782Z,24.27
2019-01-15T07:28:41.337Z,24.20
2019-01-15T07:31:09.822Z,24.43
2019-01-15T07:33:38.315Z,23.33
2019-01-15T07:36:06.803Z,25.60
2019-01-15T07:38:54.415Z,24.60
2019-01-15T07:41:42.139Z,26.20
2019-01-15T07:44:29.756Z,26.37
2019-01-15T07:47:17.391Z,27.10
2019-01-15T09:26:22.268Z,24.50
2019-01-15T09:28:50.838Z,23.37
2019-01-15T09:31:19.317Z,22.67
2019-01-15T09:34:06.924Z,22.30
2019-01-15T09:36:54.533Z,22.43
2019-01-15T09:39:42.157Z,22.23
2019-01-15T09:42:29.748Z,21.83
2019-01-15T09:45:17.369Z,20.17
2019-01-15T09:48:24.093Z,21.03
2019-01-15T09:51:11.717Z,18.03
2019-01-15T09:53:59.409Z,20.30
2019-01-15T09:56:47.037Z,20.03
2019-01-15T09:59:15.525Z,17.83
2019-01-15T10:02:03.233Z,18.53
2019-01-15T10:37:46.977Z,13.03
2019-01-15T10:40:34.794Z,13.07
2019-01-15T10:43:03.304Z,12.57
2019-01-15T10:45:50.973Z,11.47
2019-01-15T10:48:38.631Z,11.57
2019-01-15T10:51:26.317Z,12.20
2019-01-15T10:54:13.954Z,10.93
2019-01-15T10:57:01.561Z,10.43
2019-01-15T10:59:49.262Z,11.10
2019-01-15T11:02:36.866Z,11.80
2019-01-15T11:20:00.054Z,8.90
2019-01-15T11:22:47.746Z,9.80
2019-01-15T11:25:35.381Z,8.63
2019-01-15T11:28:22.999Z,8.73
2019-01-15T11:31:10.634Z,9.03
2019-01-15T11:33:39.174Z,8.77
2019-01-15T11:36:26.770Z,8.47
2019-01-15T11:39:14.379Z,8.37
2019-01-15T11:42:02.015Z,8.50
2019-01-15T11:44:49.647Z,8.23
2019-01-15T11:47:18.126Z,8.97
2019-01-15T11:50:06.602Z,9.40
2019-01-15T11:52:55.098Z,8.83
2019-01-15T11:55:42.819Z,8.40
2019-01-15T11:58:30.439Z,9.10
2019-01-15T12:01:37.204Z,9.80
2019-01-15T12:04:25.196Z,9.43
2019-01-15T12:07:32.003Z,10.07
2019-01-15T12:10:38.743Z,9.77
2019-01-15T12:13:45.475Z,10.10
2019-01-15T12:31:25.984Z,9.30
2019-01-15T12:34:32.723Z,9.60
2019-01-15T12:37:40.207Z,9.83
2019-01-15T12:40:46.955Z,11.10
2019-01-15T12:43:53.693Z,10.30
2019-01-15T12:47:00.424Z,10.37
2019-01-15T12:50:07.152Z,9.57
2019-01-15T12:53:13.912Z,9.40
2019-01-15T13:35:06.737Z,9.37
2019-01-15T13:38:13.457Z,10.37
2019-01-15T13:41:20.453Z,9.27
2019-01-15T13:44:27.303Z,9.00
2019-01-15T13:47:34.017Z,9.70
2019-01-15T13:50:40.868Z,9.53
2019-01-15T13:53:47.641Z,8.60
2019-01-15T13:56:54.357Z,8.97
2019-01-15T14:00:01.108Z,9.20
2019-01-15T14:02:58.233Z,8.93
2019-01-15T14:17:59.293Z,9.13
2019-01-15T14:20:50.585Z,9.30
2019-01-15T14:23:35.233Z,9.00
2019-01-15T14:26:12.953Z,9.13
2019-01-15T14:29:03.678Z,8.43
2019-01-15T14:31:50.078Z,8.73
2019-01-15T14:34:56.017Z,8.03
2019-01-15T14:37:50.109Z,8.67
2019-01-15T14:40:42.906Z,8.07
2019-01-15T14:43:39.442Z,8.10
2019-01-15T14:46:26.093Z,7.87
2019-01-15T14:49:11.421Z,8.10
2019-01-15T14:51:48.581Z,7.87
2019-01-15T14:54:45.530Z,8.43
2019-01-15T14:57:32.325Z,8.17
2019-01-15T15:00:19.974Z,7.93
2019-01-15T15:02:58.238Z,8.63
2019-01-15T15:05:36.491Z,14.37
2019-01-15T15:08:26.972Z,8.40
2019-01-15T15:11:17.442Z,8.97
2019-01-15T15:14:14.379Z,8.60
2019-01-15T15:17:02.342Z,9.93
2019-01-15T15:19:52.806Z,9.60
2019-01-15T15:22:35.758Z,8.57
2019-01-15T15:25:23.110Z,9.07
2019-01-15T15:28:01.803Z,8.37
2019-01-15T15:30:52.395Z,8.40
2019-01-15T15:33:49.411Z,7.23
2019-01-15T15:36:36.022Z,7.37
2019-01-15T16:10:00.755Z,6.40
2019-01-15T16:12:57.059Z,6.60
2019-01-15T16:15:40.823Z,6.53
2019-01-15T16:18:34.924Z,7.80
2019-01-15T16:21:21.679Z,6.93
2019-01-15T16:24:22.203Z,6.50
2019-01-15T16:27:06.255Z,6.40
2019-01-15T16:30:12.060Z,6.60
2019-01-15T16:32:50.351Z,8.10
2019-01-15T16:35:28.719Z,6.97
2019-01-15T16:38:15.519Z,7.00
2019-01-15T16:40:54.588Z,6.83
2019-01-15T16:43:35.259Z,7.10
2019-01-15T16:46:46.628Z,7.10
2019-01-15T16:49:49.595Z,7.00
2019-01-15T16:52:47.955Z,6.97
2019-01-15T16:55:44.412Z,7.57
2019-01-15T16:58:25.052Z,7.17
2019-01-15T17:01:15.961Z,7.23
2019-01-15T17:04:06.856Z,7.10
2019-01-15T17:06:54.527Z,8.13
2019-01-15T17:09:54.625Z,7.83
2019-01-15T17:12:41.167Z,7.73
2019-01-15T17:15:28.812Z,7.30
2019-01-15T17:18:31.396Z,7.57
2019-01-15T17:21:17.772Z,7.70
2019-01-15T17:24:14.439Z,7.90
2019-01-15T17:26:56.936Z,8.10
2019-01-15T17:29:37.796Z,8.33
2019-01-15T17:32:24.271Z,8.17
2019-01-15T17:35:10.768Z,8.17
2019-01-15T17:37:48.360Z,7.70
2019-01-15T17:40:39.133Z,7.77
2019-01-15T17:43:25.920Z,8.70
2019-01-15T17:46:16.428Z,7.57
2019-01-15T17:49:10.296Z,7.73
2019-01-15T17:51:57.014Z,8.00
2019-01-15T17:54:43.100Z,7.30
2019-01-15T17:57:29.652Z,8.63
2019-01-15T18:00:22.233Z,7.63
2019-01-15T18:03:08.763Z,7.00
2019-01-15T18:05:56.312Z,7.87
2019-01-15T18:08:42.873Z,7.97
2019-01-15T18:11:20.077Z,8.13
2019-01-15T18:14:13.805Z,9.00
2019-01-15T18:17:01.997Z,8.43
2019-01-15T18:19:48.389Z,8.37
2019-01-15T18:22:38.909Z,8.07
2019-01-15T18:25:38.609Z,8.57
2019-01-15T18:28:23.349Z,8.40
2019-01-15T18:31:09.957Z,8.53
2019-01-15T18:33:56.609Z,9.10
2019-01-15T18:36:54.037Z,9.10
2019-01-15T18:39:56.854Z,9.07
2019-01-15T18:42:53.586Z,9.97
2019-01-15T18:45:47.129Z,10.20
2019-01-15T18:48:33.245Z,10.70
2019-01-15T18:51:13.241Z,10.07
2019-01-15T18:54:16.033Z,10.93
2019-01-15T18:56:56.826Z,10.83
2019-01-15T18:59:44.474Z,11.00
2019-01-15T19:02:31.130Z,11.40
2019-01-15T19:05:22.806Z,11.23
2019-01-15T19:08:15.781Z,12.10
2019-01-15T19:11:12.738Z,12.40
2019-01-15T19:13:59.257Z,12.83
2019-01-15T19:16:49.914Z,13.90
2019-01-15T19:19:26.046Z,12.87
2019-01-15T19:22:12.438Z,15.20
2019-01-15T19:25:15.266Z,13.43
2019-01-15T19:28:02.866Z,13.93
2019-01-15T19:30:55.534Z,14.97
2019-01-15T19:33:49.876Z,14.57
2019-01-15T19:36:34.562Z,13.90
2019-01-15T19:39:20.824Z,15.57
2019-01-15T19:41:58.774Z,15.17
2019-01-15T19:44:52.554Z,15.20
2019-01-15T19:47:52.174Z,15.20
2019-01-15T19:50:38.675Z,15.83
2019-01-15T19:53:29.501Z,15.97
2019-01-15T19:56:07.785Z,14.70
2019-01-15T19:58:54.382Z,23.07
2019-01-15T20:01:44.841Z,14.90
2019-01-15T20:04:31.637Z,14.77
2019-01-15T20:07:25.121Z,15.93
2019-01-15T20:10:18.405Z,15.40
2019-01-15T20:13:05.202Z,15.57
2019-01-15T20:15:55.726Z,16.03
2019-01-15T20:18:42.054Z,15.90
2019-01-15T20:21:32.586Z,15.87
2019-01-15T20:24:23.354Z,15.23
2019-01-15T20:27:23.194Z,13.80
2019-01-15T20:30:09.538Z,15.40
2019-01-15T20:32:55.970Z,14.80
2019-01-15T20:35:42.462Z,14.77
2019-01-15T20:38:35.986Z,14.30
2019-01-15T20:41:33.218Z,13.72
2019-01-15T20:44:27.199Z,13.20
2019-01-15T20:47:11.470Z,13.73
2019-01-15T20:49:55.118Z,14.33
2019-01-15T20:52:37.594Z,13.87
2019-01-15T20:55:21.450Z,13.83
2019-01-15T20:58:24.502Z,13.73
2019-01-15T21:01:00.570Z,13.07
2019-01-15T21:03:45.718Z,13.43
2019-01-15T21:06:45.310Z,13.77
2019-01-15T21:09:31.838Z,14.40
2019-01-15T21:12:20.531Z,13.13
2019-01-15T21:15:14.284Z,13.00
2019-01-15T21:17:57.454Z,13.10
2019-01-15T21:20:43.975Z,13.27
2019-01-15T21:23:31.552Z,13.37
2019-01-15T21:26:18.269Z,12.73
2019-01-15T21:29:07.254Z,13.70
2019-01-15T21:31:45.459Z,13.00
2019-01-15T21:34:27.371Z,13.70
2019-01-15T21:37:17.858Z,13.37
2019-01-15T21:39:57.636Z,12.70
2019-01-15T21:42:44.024Z,13.80
2019-01-15T21:45:34.783Z,12.90
2019-01-15T21:48:37.655Z,12.80
2019-01-15T21:51:23.919Z,12.67
2019-01-15T21:54:15.844Z,12.80
2019-01-15T21:57:09.523Z,12.70
2019-01-15T21:59:56.168Z,12.97
2019-01-15T22:02:58.989Z,13.30
2019-01-15T22:05:49.704Z,13.40
2019-01-15T22:08:52.369Z,14.33
2019-01-15T22:11:45.811Z,14.43
2019-01-15T22:14:26.679Z,14.63
2019-01-15T22:17:26.623Z,14.00
2019-01-15T22:20:03.359Z,15.13
2019-01-15T22:22:48.991Z,15.47
2019-01-15T22:28:28.703Z,15.57
2019-01-15T22:31:28.651Z,15.13
2019-01-15T22:34:15.088Z,15.60
2019-01-15T22:37:01.660Z,14.57
2019-01-15T22:39:48.076Z,15.03
2019-01-15T22:42:45.096Z,14.67
2019-01-15T22:45:36.219Z,15.80
2019-01-15T22:48:30.720Z,15.20
2019-01-15T22:51:21.408Z,14.97
2019-01-15T22:53:59.636Z,14.80
2019-01-15T22:56:47.264Z,13.63
2019-01-15T22:59:40.768Z,13.53
2019-01-15T23:02:27.108Z,14.23
2019-01-15T23:05:21.148Z,13.47
2019-01-15T23:08:08.792Z,12.77
2019-01-15T23:10:56.400Z,12.77
2019-01-15T23:13:40.812Z,11.60
2019-01-15T23:16:18.744Z,11.47
2019-01-15T23:19:18.344Z,10.83
2019-01-15T23:21:56.736Z,12.17
2019-01-15T23:24:50.297Z,12.10
2019-01-15T23:27:37.122Z,11.03
2019-01-15T23:30:44.552Z,11.80
2019-01-15T23:33:32.484Z,11.70
2019-01-15T23:36:26.060Z,11.33
2019-01-15T23:39:13.720Z,10.63
2019-01-15T23:42:16.480Z,11.20
2019-01-15T23:45:15.989Z,10.83
2019-01-15T23:48:10.119Z,11.47
2019-01-15T23:51:10.365Z,10.97
2019-01-15T23:53:56.993Z,11.20
2019-01-15T23:56:41.905Z,11.33
2019-01-15T23:59:28.457Z,10.33
